Time;durP1;ratioP1;P1;durP2;ratioP2;P2;SDS_P1;SDS_P2;PMS_P1;PMS_P2;Temp;Humidity;BMP_temperature;BMP_pressure;BME280_temperature;BME280_humidity;BME280_pressure;Samples;Min_cycle;Max_cycle;Signal;HPM_P1;HPM_P2
2023/12/23 00:01:05;;;;;;;0.22;0.00;;;;;;;;;;5056800;28;20053;-90
2023/12/23 00:03:32;;;;;;;0.00;0.00;;;;;;;;;;5056973;28;20053;-88
2023/12/23 00:05:59;;;;;;;0.10;0.10;;;;;;;;;;5057382;28;20057;-92
2023/12/23 00:08:27;;;;;;;0.25;0.10;;;;;;;;;;5037443;28;20506;-91
2023/12/23 00:10:56;;;;;;;0.10;0.10;;;;;;;;;;5037273;28;20053;-89
2023/12/23 00:13:24;;;;;;;0.17;0.10;;;;;;;;;;5040210;28;20092;-90
2023/12/23 00:15:51;;;;;;;0.20;0.10;;;;;;;;;;5043260;28;20045;-92
2023/12/23 00:18:18;;;;;;;0.32;0.10;;;;;;;;;;5046705;28;20456;-94
2023/12/23 00:20:45;;;;;;;0.10;0.10;;;;;;;;;;5047933;28;20075;-91
2023/12/23 00:23:13;;;;;;;0.32;0.10;;;;;;;;;;5046087;28;20072;-91
2023/12/23 00:25:40;;;;;;;0.00;0.00;;;;;;;;;;5061253;28;20054;-91
2023/12/23 00:28:08;;;;;;;0.55;0.10;;;;;;;;;;5062799;28;20068;-91
2023/12/23 00:30:35;;;;;;;0.43;0.20;;;;;;;;;;5047830;28;20616;-93
2023/12/23 00:33:05;;;;;;;0.47;0.03;;;;;;;;;;5048014;28;20477;-91
2023/12/23 00:35:33;;;;;;;0.60;0.10;;;;;;;;;;5045491;28;20554;-91
2023/12/23 00:38:00;;;;;;;0.80;0.25;;;;;;;;;;5044525;28;20053;-90
2023/12/23 00:40:29;;;;;;;0.65;0.20;;;;;;;;;;5036723;28;20069;-89
2023/12/23 00:42:57;;;;;;;0.20;0.20;;;;;;;;;;5060578;28;20119;-90
2023/12/23 00:45:24;;;;;;;2.17;0.30;;;;;;;;;;5063935;28;20057;-91
2023/12/23 00:47:51;;;;;;;0.52;0.28;;;;;;;;;;5064960;28;20060;-91
2023/12/23 00:50:19;;;;;;;1.10;0.28;;;;;;;;;;5045195;28;20053;-91
2023/12/23 00:52:46;;;;;;;0.43;0.28;;;;;;;;;;5060314;28;20414;-91
2023/12/23 00:55:14;;;;;;;1.40;0.20;;;;;;;;;;5062033;28;20049;-92
2023/12/23 00:57:41;;;;;;;2.33;0.20;;;;;;;;;;5047382;28;20486;-91
2023/12/23 01:00:08;;;;;;;1.35;0.30;;;;;;;;;;5038630;28;20076;-91
2023/12/23 01:02:36;;;;;;;1.85;0.43;;;;;;;;;;5060679;28;20456;-90
2023/12/23 01:05:03;;;;;;;1.35;0.20;;;;;;;;;;5035633;28;20441;-91
2023/12/23 01:07:30;;;;;;;0.57;0.25;;;;;;;;;;5061317;28;20065;-92
2023/12/23 01:09:57;;;;;;;1.75;0.32;;;;;;;;;;5060561;28;20045;-90
2023/12/23 01:12:25;;;;;;;2.17;0.43;;;;;;;;;;5064463;28;20087;-92
2023/12/23 01:14:53;;;;;;;1.80;0.30;;;;;;;;;;5034867;28;20049;-90
2023/12/23 01:17:20;;;;;;;0.60;0.30;;;;;;;;;;5042910;28;20057;-90
2023/12/23 01:19:47;;;;;;;0.95;0.40;;;;;;;;;;5059795;28;20065;-90
2023/12/23 01:22:15;;;;;;;2.17;0.43;;;;;;;;;;5061499;28;20052;-92
2023/12/23 01:24:42;;;;;;;1.38;0.30;;;;;;;;;;5041265;28;20079;-91
2023/12/23 01:27:09;;;;;;;1.73;0.32;;;;;;;;;;5043832;28;20523;-91
2023/12/23 01:29:37;;;;;;;0.60;0.30;;;;;;;;;;5033957;28;20478;-92
2023/12/23 01:32:04;;;;;;;0.68;0.30;;;;;;;;;;5060213;28;20049;-92
2023/12/23 01:34:31;;;;;;;0.90;0.20;;;;;;;;;;5046416;28;20056;-90
2023/12/23 01:36:58;;;;;;;0.05;0.05;;;;;;;;;;5047339;28;20095;-93
2023/12/23 01:39:26;;;;;;;0.60;0.20;;;;;;;;;;5043494;28;20103;-92
2023/12/23 01:41:53;;;;;;;2.58;0.40;;;;;;;;;;5059638;28;20061;-91
2023/12/23 01:44:20;;;;;;;0.30;0.13;;;;;;;;;;5062000;28;20107;-91
2023/12/23 01:46:48;;;;;;;1.80;0.30;;;;;;;;;;5046432;28;20056;-91
2023/12/23 01:49:16;;;;;;;2.38;0.40;;;;;;;;;;5044156;28;20419;-91
2023/12/23 01:51:43;;;;;;;0.60;0.30;;;;;;;;;;5056748;28;20069;-90
2023/12/23 01:54:10;;;;;;;0.30;0.17;;;;;;;;;;5044946;28;20053;-91
2023/12/23 01:56:38;;;;;;;0.40;0.20;;;;;;;;;;5059587;28;20053;-90
2023/12/23 01:59:05;;;;;;;0.20;0.20;;;;;;;;;;5059774;28;20119;-91
2023/12/23 02:01:32;;;;;;;1.00;0.30;;;;;;;;;;5057367;28;20049;-88
2023/12/23 02:04:00;;;;;;;0.35;0.20;;;;;;;;;;5050114;28;20080;-91
2023/12/23 02:06:27;;;;;;;2.33;0.20;;;;;;;;;;5034465;28;20099;-91
2023/12/23 02:08:55;;;;;;;1.90;0.40;;;;;;;;;;5059342;28;20099;-90
2023/12/23 02:11:33;;;;;;;2.28;0.30;;;;;;;;;;5061734;28;20474;-92
2023/12/23 02:14:07;;;;;;;1.20;0.28;;;;;;;;;;5045770;28;20052;-91
2023/12/23 02:16:35;;;;;;;3.03;0.45;;;;;;;;;;5055201;28;20095;-90
2023/12/23 02:19:02;;;;;;;4.10;0.57;;;;;;;;;;5045587;28;20083;-90
2023/12/23 02:21:29;;;;;;;1.02;0.17;;;;;;;;;;5058559;28;20053;-89
2023/12/23 02:23:57;;;;;;;1.98;0.30;;;;;;;;;;5058720;28;20049;-89
2023/12/23 02:26:25;;;;;;;2.30;0.30;;;;;;;;;;5062149;28;20052;-90
2023/12/23 02:28:52;;;;;;;1.30;0.30;;;;;;;;;;5045319;28;20048;-90
2023/12/23 02:31:21;;;;;;;1.27;0.40;;;;;;;;;;5043157;28;20061;-91
2023/12/23 02:33:48;;;;;;;2.28;0.40;;;;;;;;;;5058518;28;20080;-90
2023/12/23 02:36:20;;;;;;;2.35;0.20;;;;;;;;;;5060734;28;20041;-90
2023/12/23 02:38:48;;;;;;;1.35;0.30;;;;;;;;;;5044715;28;20110;-91
2023/12/23 02:41:15;;;;;;;2.05;0.38;;;;;;;;;;5043155;28;20068;-89
2023/12/23 02:43:43;;;;;;;0.93;0.30;;;;;;;;;;5041609;28;20064;-90
2023/12/23 02:46:10;;;;;;;0.20;0.20;;;;;;;;;;5042620;28;20501;-91
2023/12/23 02:48:38;;;;;;;1.08;0.10;;;;;;;;;;5045373;28;20065;-90
2023/12/23 02:51:05;;;;;;;1.10;0.30;;;;;;;;;;5027969;28;20476;-91
2023/12/23 02:53:33;;;;;;;0.45;0.28;;;;;;;;;;5030237;28;20511;-90
2023/12/23 02:56:00;;;;;;;0.85;0.28;;;;;;;;;;5045148;28;20084;-90
2023/12/23 02:58:27;;;;;;;1.27;0.30;;;;;;;;;;5033491;28;20076;-91
2023/12/23 03:00:54;;;;;;;0.45;0.20;;;;;;;;;;5058051;28;20486;-90
2023/12/23 03:03:22;;;;;;;1.40;0.40;;;;;;;;;;5060673;28;20698;-89
2023/12/23 03:05:49;;;;;;;1.52;0.30;;;;;;;;;;5045055;28;20072;-89
2023/12/23 03:08:16;;;;;;;0.85;0.20;;;;;;;;;;5042936;28;20451;-89
2023/12/23 03:10:43;;;;;;;1.50;0.30;;;;;;;;;;5057767;28;20536;-89
2023/12/23 03:13:11;;;;;;;1.70;0.70;;;;;;;;;;5059071;28;20049;-89
2023/12/23 03:15:38;;;;;;;1.70;0.20;;;;;;;;;;5048863;28;20060;-89
2023/12/23 03:18:05;;;;;;;1.40;0.63;;;;;;;;;;5057623;28;20489;-88
2023/12/23 03:20:33;;;;;;;2.63;0.30;;;;;;;;;;5057904;28;20046;-90
2023/12/23 03:23:00;;;;;;;0.45;0.45;;;;;;;;;;5041000;28;20054;-90
2023/12/23 03:25:29;;;;;;;3.30;0.65;;;;;;;;;;5037700;28;20128;-90
2023/12/23 03:27:56;;;;;;;1.75;0.40;;;;;;;;;;5036521;28;20053;-89
2023/12/23 03:30:23;;;;;;;2.83;0.63;;;;;;;;;;5038868;28;20799;-89
2023/12/23 03:32:50;;;;;;;1.08;0.38;;;;;;;;;;5034665;28;20052;-90
2023/12/23 03:35:18;;;;;;;0.50;0.40;;;;;;;;;;5042434;28;20499;-91
2023/12/23 03:37:45;;;;;;;0.93;0.20;;;;;;;;;;5057396;28;20057;-89
2023/12/23 03:40:13;;;;;;;1.35;0.40;;;;;;;;;;5058728;28;20053;-90
2023/12/23 03:42:40;;;;;;;1.67;0.30;;;;;;;;;;5044355;28;20053;-92
2023/12/23 03:45:07;;;;;;;0.98;0.40;;;;;;;;;;5043783;28;20068;-91
2023/12/23 03:47:35;;;;;;;3.45;0.45;;;;;;;;;;5041070;28;20057;-89
2023/12/23 03:50:02;;;;;;;1.45;0.22;;;;;;;;;;5040728;28;20134;-90
2023/12/23 03:52:30;;;;;;;2.38;0.50;;;;;;;;;;5043950;28;20143;-90
2023/12/23 03:54:57;;;;;;;5.60;0.70;;;;;;;;;;5044463;28;20110;-90
2023/12/23 03:57:24;;;;;;;2.22;0.50;;;;;;;;;;5044238;28;20057;-90
2023/12/23 03:59:51;;;;;;;1.65;0.40;;;;;;;;;;5043629;28;20568;-89
2023/12/23 04:02:18;;;;;;;0.75;0.30;;;;;;;;;;5041767;28;20110;-89
2023/12/23 04:04:46;;;;;;;1.60;0.50;;;;;;;;;;5057073;28;20143;-90
2023/12/23 04:07:13;;;;;;;0.73;0.40;;;;;;;;;;5058313;28;20053;-89
2023/12/23 04:09:41;;;;;;;1.00;0.35;;;;;;;;;;5038805;28;20107;-89
2023/12/23 04:12:10;;;;;;;3.83;0.60;;;;;;;;;;5041387;28;20127;-89
2023/12/23 04:14:40;;;;;;;2.42;0.50;;;;;;;;;;5034183;28;20058;-89
2023/12/23 04:17:07;;;;;;;1.38;0.60;;;;;;;;;;5037586;28;20390;-89
2023/12/23 04:19:35;;;;;;;2.85;0.50;;;;;;;;;;5056492;28;20081;-88
2023/12/23 04:22:02;;;;;;;4.13;0.65;;;;;;;;;;5056651;28;20112;-88
2023/12/23 04:24:29;;;;;;;2.38;0.35;;;;;;;;;;5043733;28;20052;-89
2023/12/23 04:26:57;;;;;;;2.67;0.40;;;;;;;;;;5043777;28;20053;-89
2023/12/23 04:29:24;;;;;;;5.22;0.70;;;;;;;;;;5041317;28;20545;-89
2023/12/23 04:31:51;;;;;;;3.45;0.70;;;;;;;;;;5067588;28;20061;-88
2023/12/23 04:34:19;;;;;;;3.67;0.40;;;;;;;;;;5059308;28;20152;-88
2023/12/23 04:36:46;;;;;;;1.02;0.32;;;;;;;;;;5052021;28;20061;-88
2023/12/23 04:39:13;;;;;;;3.60;0.40;;;;;;;;;;5043112;28;20103;-88
2023/12/23 04:41:46;;;;;;;4.38;0.57;;;;;;;;;;5056773;28;20057;-88
2023/12/23 04:44:14;;;;;;;;;;;;;;;;;;5058464;28;20569;-88
2023/12/23 04:46:41;;;;;;;0.55;0.40;;;;;;;;;;5043643;28;20009;-88
2023/12/23 04:49:10;;;;;;;0.70;0.40;;;;;;;;;;5042380;28;20052;-88
2023/12/23 04:51:37;;;;;;;1.45;0.63;;;;;;;;;;5056700;28;20484;-88
2023/12/23 04:54:05;;;;;;;2.13;0.47;;;;;;;;;;5056763;28;20053;-88
2023/12/23 04:56:32;;;;;;;0.95;0.40;;;;;;;;;;5044619;28;20083;-88
2023/12/23 04:59:00;;;;;;;0.60;0.50;;;;;;;;;;5027325;28;20053;-89
2023/12/23 05:01:27;;;;;;;1.90;0.77;;;;;;;;;;5058343;28;20053;-88
2023/12/23 05:03:55;;;;;;;1.63;1.00;;;;;;;;;;5043560;28;20470;-88
2023/12/23 05:06:22;;;;;;;4.10;1.48;;;;;;;;;;5043566;28;20065;-88
2023/12/23 05:08:49;;;;;;;3.05;1.13;;;;;;;;;;5060139;28;20084;-88
2023/12/23 05:11:17;;;;;;;3.55;1.10;;;;;;;;;;5061975;28;20049;-87
2023/12/23 05:13:44;;;;;;;3.03;1.45;;;;;;;;;;5046753;28;20490;-88
2023/12/23 05:16:11;;;;;;;3.03;1.42;;;;;;;;;;5045590;28;20041;-88
2023/12/23 05:18:38;;;;;;;1.48;1.38;;;;;;;;;;5044230;28;20057;-88
2023/12/23 05:21:06;;;;;;;2.83;1.40;;;;;;;;;;5044535;28;20045;-88
2023/12/23 05:23:33;;;;;;;4.70;2.05;;;;;;;;;;5047632;28;20521;-88
2023/12/23 05:26:00;;;;;;;3.08;1.98;;;;;;;;;;5046401;28;20124;-88
2023/12/23 05:28:27;;;;;;;1.92;1.70;;;;;;;;;;5046613;28;20060;-88
2023/12/23 05:30:55;;;;;;;1.92;1.83;;;;;;;;;;5046583;28;20048;-88
2023/12/23 05:33:24;;;;;;;3.33;1.90;;;;;;;;;;5043552;28;20049;-88
2023/12/23 05:35:52;;;;;;;7.10;1.73;;;;;;;;;;5059948;28;20525;-88
2023/12/23 05:38:19;;;;;;;2.17;1.25;;;;;;;;;;5046037;28;20077;-88
2023/12/23 05:40:47;;;;;;;1.73;0.90;;;;;;;;;;5046261;28;20047;-87
2023/12/23 05:43:14;;;;;;;2.15;0.95;;;;;;;;;;5044501;28;20056;-88
2023/12/23 05:45:41;;;;;;;1.13;1.00;;;;;;;;;;5049257;28;20049;-88
2023/12/23 05:48:08;;;;;;;1.85;0.73;;;;;;;;;;5070456;28;20107;-88
2023/12/23 05:50:36;;;;;;;0.50;0.50;;;;;;;;;;5038060;28;20057;-87
2023/12/23 05:53:03;;;;;;;2.55;0.98;;;;;;;;;;5030730;28;20044;-87
2023/12/23 05:55:31;;;;;;;2.47;2.28;;;;;;;;;;5059078;28;20053;-87
2023/12/23 05:57:58;;;;;;;1.27;1.17;;;;;;;;;;5059128;28;20077;-87
2023/12/23 06:00:25;;;;;;;1.08;0.63;;;;;;;;;;5062019;28;20118;-87
2023/12/23 06:02:53;;;;;;;1.08;0.90;;;;;;;;;;5045766;28;20053;-88
2023/12/23 06:05:20;;;;;;;3.78;2.30;;;;;;;;;;5043160;28;20049;-87
2023/12/23 06:07:48;;;;;;;2.47;1.80;;;;;;;;;;5058730;28;20061;-87
2023/12/23 06:10:15;;;;;;;4.03;2.00;;;;;;;;;;5060394;28;20053;-87
2023/12/23 06:12:42;;;;;;;3.28;2.78;;;;;;;;;;5045120;28;20049;-87
2023/12/23 06:15:10;;;;;;;5.13;2.92;;;;;;;;;;5045489;28;20103;-87
2023/12/23 06:17:37;;;;;;;6.50;2.67;;;;;;;;;;5058630;28;20045;-87
2023/12/23 06:20:05;;;;;;;2.63;2.42;;;;;;;;;;5042209;28;20242;-87
2023/12/23 06:22:32;;;;;;;3.40;2.22;;;;;;;;;;5045312;28;20048;-87
2023/12/23 06:24:59;;;;;;;0.80;0.80;;;;;;;;;;5045583;28;20049;-87
2023/12/23 06:27:26;;;;;;;0.85;0.70;;;;;;;;;;5042015;28;20053;-87
2023/12/23 06:29:53;;;;;;;2.88;1.23;;;;;;;;;;5041761;28;20049;-87
2023/12/23 06:32:21;;;;;;;3.22;1.63;;;;;;;;;;5042357;28;20107;-87
2023/12/23 06:34:48;;;;;;;4.95;1.33;;;;;;;;;;5058207;28;20444;-87
2023/12/23 06:37:15;;;;;;;4.13;1.83;;;;;;;;;;5040809;28;20085;-87
2023/12/23 06:39:42;;;;;;;2.55;1.50;;;;;;;;;;5033963;28;20041;-87
2023/12/23 06:42:10;;;;;;;3.60;1.85;;;;;;;;;;5042716;28;20139;-87
2023/12/23 06:44:37;;;;;;;2.25;1.38;;;;;;;;;;5031132;28;20083;-86
2023/12/23 06:47:05;;;;;;;1.75;1.23;;;;;;;;;;5045542;28;20144;-87
2023/12/23 06:49:33;;;;;;;1.63;1.30;;;;;;;;;;5042183;28;20046;-87
2023/12/23 06:52:00;;;;;;;0.40;0.40;;;;;;;;;;5057751;28;20402;-86
2023/12/23 06:54:28;;;;;;;2.50;0.60;;;;;;;;;;5049685;28;20050;-86
2023/12/23 06:56:55;;;;;;;2.20;0.68;;;;;;;;;;5040553;28;20061;-86
2023/12/23 06:59:22;;;;;;;0.75;0.70;;;;;;;;;;5061069;28;20059;-86
2023/12/23 07:01:50;;;;;;;0.63;0.50;;;;;;;;;;5054391;28;20045;-87
2023/12/23 07:04:17;;;;;;;1.08;0.88;;;;;;;;;;5027782;28;20046;-86
2023/12/23 07:06:44;;;;;;;3.58;1.00;;;;;;;;;;5041883;28;20077;-87
2023/12/23 07:09:11;;;;;;;1.50;0.47;;;;;;;;;;5058914;28;20490;-86
2023/12/23 07:11:39;;;;;;;0.45;0.32;;;;;;;;;;5045445;28;20053;-87
2023/12/23 07:14:06;;;;;;;0.63;0.60;;;;;;;;;;5043608;28;20065;-87
2023/12/23 07:16:33;;;;;;;2.13;1.20;;;;;;;;;;5025889;28;20076;-87
2023/12/23 07:19:00;;;;;;;2.60;1.10;;;;;;;;;;5057111;28;20115;-87
2023/12/23 07:21:29;;;;;;;2.45;1.10;;;;;;;;;;5044532;28;20051;-87
2023/12/23 07:23:56;;;;;;;2.40;1.60;;;;;;;;;;5037207;28;20100;-87
2023/12/23 07:26:23;;;;;;;1.80;0.90;;;;;;;;;;5040762;28;20072;-87
2023/12/23 07:28:51;;;;;;;1.38;0.68;;;;;;;;;;5057703;28;20049;-87
2023/12/23 07:31:18;;;;;;;4.90;1.73;;;;;;;;;;5044198;28;20478;-87
2023/12/23 07:33:46;;;;;;;3.53;2.78;;;;;;;;;;5043686;28;20067;-87
2023/12/23 07:36:14;;;;;;;1.58;1.48;;;;;;;;;;5027666;28;20045;-86
2023/12/23 07:38:41;;;;;;;4.25;2.28;;;;;;;;;;5045133;28;20118;-87
2023/12/23 07:41:09;;;;;;;3.83;1.48;;;;;;;;;;5043034;28;20045;-87
2023/12/23 07:43:37;;;;;;;1.83;1.33;;;;;;;;;;5056867;28;20085;-86
2023/12/23 07:46:04;;;;;;;1.50;1.40;;;;;;;;;;5048618;28;20065;-87
2023/12/23 07:48:31;;;;;;;1.63;0.98;;;;;;;;;;5057060;28;20053;-88
2023/12/23 07:50:59;;;;;;;1.00;0.88;;;;;;;;;;5057229;28;20051;-86
2023/12/23 07:53:26;;;;;;;1.70;0.82;;;;;;;;;;5060061;28;20099;-88
2023/12/23 07:55:53;;;;;;;1.40;0.70;;;;;;;;;;5043986;28;20080;-87
2023/12/23 07:58:20;;;;;;;1.73;0.90;;;;;;;;;;5035568;28;20076;-88
2023/12/23 08:00:48;;;;;;;0.93;0.88;;;;;;;;;;5044795;28;20056;-87
2023/12/23 08:03:15;;;;;;;1.38;0.90;;;;;;;;;;5041868;28;20055;-87
2023/12/23 08:05:42;;;;;;;2.95;1.67;;;;;;;;;;5057122;28;20414;-88
2023/12/23 08:08:10;;;;;;;1.92;1.52;;;;;;;;;;5057927;28;20081;-87
2023/12/23 08:10:38;;;;;;;5.47;4.18;;;;;;;;;;5044075;28;20049;-88
2023/12/23 08:13:06;;;;;;;5.55;5.15;;;;;;;;;;5044293;28;20101;-88
2023/12/23 08:15:34;;;;;;;5.38;4.97;;;;;;;;;;5048744;28;20574;-86
2023/12/23 08:18:01;;;;;;;4.03;3.72;;;;;;;;;;5053568;28;20057;-88
2023/12/23 08:20:29;;;;;;;2.17;1.85;;;;;;;;;;5033572;28;20461;-88
2023/12/23 08:22:56;;;;;;;1.50;1.10;;;;;;;;;;5056639;28;20549;-88
2023/12/23 08:25:23;;;;;;;1.20;1.13;;;;;;;;;;5059676;28;20382;-87
2023/12/23 08:27:51;;;;;;;0.93;0.93;;;;;;;;;;5043574;28;20053;-88
2023/12/23 08:30:18;;;;;;;1.00;1.00;;;;;;;;;;5042550;28;20080;-87
2023/12/23 08:32:45;;;;;;;2.10;2.00;;;;;;;;;;5056935;28;20405;-88
2023/12/23 08:35:14;;;;;;;2.10;2.00;;;;;;;;;;5043329;28;20053;-88
2023/12/23 08:37:41;;;;;;;1.60;1.50;;;;;;;;;;5048228;28;20086;-88
2023/12/23 08:40:10;;;;;;;1.58;1.48;;;;;;;;;;5046664;28;20159;-89
2023/12/23 08:42:37;;;;;;;10.73;8.05;;;;;;;;;;5044976;28;20107;-88
2023/12/23 08:45:05;;;;;;;3.15;2.95;;;;;;;;;;5029313;28;20050;-89
2023/12/23 08:47:32;;;;;;;3.65;1.70;;;;;;;;;;5047630;28;20049;-88
2023/12/23 08:50:00;;;;;;;0.88;0.88;;;;;;;;;;5048686;28;20044;-88
2023/12/23 08:52:27;;;;;;;2.80;2.60;;;;;;;;;;5027249;28;20077;-88
2023/12/23 08:54:55;;;;;;;7.15;4.25;;;;;;;;;;5044694;28;20092;-87
2023/12/23 08:57:22;;;;;;;5.43;4.45;;;;;;;;;;5062795;28;20049;-88
2023/12/23 08:59:49;;;;;;;7.30;5.68;;;;;;;;;;5047534;28;20132;-88
2023/12/23 09:02:16;;;;;;;4.90;3.67;;;;;;;;;;5045193;28;20049;-88
2023/12/23 09:04:44;;;;;;;2.00;1.90;;;;;;;;;;5060284;28;20140;-89
2023/12/23 09:07:12;;;;;;;2.63;2.42;;;;;;;;;;5060034;28;20052;-88
2023/12/23 09:09:40;;;;;;;1.70;1.60;;;;;;;;;;5040484;28;20057;-87
2023/12/23 09:12:08;;;;;;;2.33;0.90;;;;;;;;;;5046227;28;20053;-88
2023/12/23 09:14:35;;;;;;;0.60;0.60;;;;;;;;;;5044268;28;20103;-88
2023/12/23 09:17:03;;;;;;;0.50;0.50;;;;;;;;;;5060055;28;20049;-89
2023/12/23 09:19:30;;;;;;;0.40;0.40;;;;;;;;;;5051910;28;20081;-88
2023/12/23 09:21:58;;;;;;;0.30;0.30;;;;;;;;;;5043984;28;20081;-87
2023/12/23 09:24:25;;;;;;;0.55;0.40;;;;;;;;;;5047506;28;20052;-89
2023/12/23 09:26:52;;;;;;;0.60;0.30;;;;;;;;;;5033050;28;20049;-88
2023/12/23 09:29:20;;;;;;;0.20;0.20;;;;;;;;;;5062177;28;20099;-89
2023/12/23 09:31:47;;;;;;;0.15;0.15;;;;;;;;;;5061450;28;20063;-88
2023/12/23 09:34:14;;;;;;;0.20;0.20;;;;;;;;;;5045261;28;20135;-89
2023/12/23 09:36:42;;;;;;;0.20;0.20;;;;;;;;;;5059627;28;20045;-89
2023/12/23 09:39:09;;;;;;;0.10;0.10;;;;;;;;;;5059724;28;20049;-89
2023/12/23 09:41:36;;;;;;;0.17;0.10;;;;;;;;;;5043175;28;20053;-88
2023/12/23 09:44:03;;;;;;;0.75;0.75;;;;;;;;;;5043100;28;20053;-88
2023/12/23 09:46:31;;;;;;;0.10;0.10;;;;;;;;;;5033799;28;20041;-87
2023/12/23 09:48:59;;;;;;;0.68;0.32;;;;;;;;;;5059111;28;20485;-87
2023/12/23 09:51:32;;;;;;;0.17;0.17;;;;;;;;;;5046597;28;20133;-88
2023/12/23 09:54:03;;;;;;;0.43;0.28;;;;;;;;;;5045723;28;20460;-85
2023/12/23 09:56:30;;;;;;;0.40;0.40;;;;;;;;;;5032713;28;20050;-87
2023/12/23 09:58:58;;;;;;;0.45;0.45;;;;;;;;;;5058676;28;20481;-87
2023/12/23 10:01:25;;;;;;;0.40;0.40;;;;;;;;;;5045738;28;20382;-87
2023/12/23 10:03:53;;;;;;;0.10;0.10;;;;;;;;;;5045016;28;20061;-89
2023/12/23 10:06:21;;;;;;;0.10;0.10;;;;;;;;;;5043372;28;20095;-87
2023/12/23 10:08:50;;;;;;;0.60;0.22;;;;;;;;;;5059085;28;20509;-89
2023/12/23 10:11:18;;;;;;;0.20;0.20;;;;;;;;;;5045166;28;20107;-88
2023/12/23 10:13:45;;;;;;;0.10;0.10;;;;;;;;;;5046579;28;20512;-90
2023/12/23 10:16:14;;;;;;;0.38;0.32;;;;;;;;;;5028848;28;20045;-88
2023/12/23 10:18:41;;;;;;;0.13;0.13;;;;;;;;;;5058668;28;20061;-86
2023/12/23 10:21:09;;;;;;;0.20;0.20;;;;;;;;;;5059250;28;20065;-87
2023/12/23 10:23:36;;;;;;;0.15;0.10;;;;;;;;;;5045751;28;20049;-87
2023/12/23 10:26:03;;;;;;;1.38;0.22;;;;;;;;;;5045691;28;20049;-87
2023/12/23 10:28:31;;;;;;;0.47;0.20;;;;;;;;;;5058251;28;20103;-87
2023/12/23 10:31:01;;;;;;;0.52;0.25;;;;;;;;;;5042894;28;20092;-89
2023/12/23 10:33:31;;;;;;;0.40;0.40;;;;;;;;;;5043616;28;20049;-87
2023/12/23 10:35:59;;;;;;;1.40;1.30;;;;;;;;;;5027313;28;20100;-88
2023/12/23 10:38:27;;;;;;;2.03;1.30;;;;;;;;;;5045761;28;20057;-89
2023/12/23 10:40:56;;;;;;;4.82;2.85;;;;;;;;;;5039292;28;20412;-89
2023/12/23 10:43:25;;;;;;;6.25;3.67;;;;;;;;;;5049566;28;20053;-88
2023/12/23 10:45:53;;;;;;;9.98;4.95;;;;;;;;;;5048215;28;20072;-87
2023/12/23 10:48:20;;;;;;;1.95;1.73;;;;;;;;;;5052344;28;20049;-89
2023/12/23 10:50:49;;;;;;;3.75;2.95;;;;;;;;;;5045402;28;20044;-86
2023/12/23 10:53:20;;;;;;;1.77;1.60;;;;;;;;;;5040529;28;20468;-88
2023/12/23 10:55:48;;;;;;;1.80;1.23;;;;;;;;;;5033785;28;20053;-87
2023/12/23 10:58:16;;;;;;;0.75;0.75;;;;;;;;;;5035756;28;20056;-85
2023/12/23 11:00:46;;;;;;;0.50;0.40;;;;;;;;;;5033388;28;20049;-86
2023/12/23 11:03:14;;;;;;;1.20;1.10;;;;;;;;;;5039873;28;20122;-87
2023/12/23 11:05:43;;;;;;;0.40;0.40;;;;;;;;;;5041660;28;20124;-86
2023/12/23 11:08:13;;;;;;;0.70;0.70;;;;;;;;;;5042144;28;20057;-87
2023/12/23 11:10:43;;;;;;;;;;;;;;;;;;5045312;28;20056;-88
2023/12/23 11:13:12;;;;;;;0.20;0.20;;;;;;;;;;5042968;28;19920;-86
2023/12/23 11:15:40;;;;;;;0.65;0.30;;;;;;;;;;5057933;28;20049;-89
2023/12/23 11:18:10;;;;;;;0.20;0.20;;;;;;;;;;5049372;28;20126;-87
2023/12/23 11:20:41;;;;;;;1.55;0.30;;;;;;;;;;5034033;28;20057;-86
2023/12/23 11:23:30;;;;;;;0.20;0.20;;;;;;;;;;5041190;28;20053;-87
2023/12/23 11:25:58;;;;;;;0.45;0.20;;;;;;;;;;5044560;28;20106;-88
2023/12/23 11:28:26;;;;;;;0.30;0.30;;;;;;;;;;5042150;28;20057;-87
2023/12/23 11:30:55;;;;;;;0.55;0.55;;;;;;;;;;5057108;28;20045;-87
2023/12/23 11:33:23;;;;;;;0.25;0.10;;;;;;;;;;5059374;28;20142;-87
2023/12/23 11:35:51;;;;;;;0.13;0.13;;;;;;;;;;5044328;28;20061;-87
2023/12/23 11:38:20;;;;;;;2.15;1.77;;;;;;;;;;5036000;28;20056;-87
2023/12/23 11:40:49;;;;;;;3.40;2.20;;;;;;;;;;5030690;28;20057;-87
2023/12/23 11:43:16;;;;;;;1.88;1.13;;;;;;;;;;5054693;28;20076;-86
2023/12/23 11:45:48;;;;;;;2.88;1.73;;;;;;;;;;5023729;28;20445;-87
2023/12/23 11:48:18;;;;;;;3.85;1.65;;;;;;;;;;5017313;28;20054;-85
2023/12/23 11:50:45;;;;;;;1.73;1.50;;;;;;;;;;5051131;28;20046;-86
2023/12/23 11:53:14;;;;;;;1.13;1.02;;;;;;;;;;5039252;28;20106;-87
2023/12/23 11:55:42;;;;;;;4.57;1.60;;;;;;;;;;5057173;28;20132;-86
2023/12/23 11:58:10;;;;;;;2.63;1.58;;;;;;;;;;5040991;28;20493;-86
2023/12/23 12:00:40;;;;;;;1.42;1.33;;;;;;;;;;5041307;28;20080;-87
2023/12/23 12:03:07;;;;;;;1.30;1.20;;;;;;;;;;5040250;28;20470;-85
2023/12/23 12:05:35;;;;;;;0.80;0.80;;;;;;;;;;5039062;28;20050;-84
2023/12/23 12:08:02;;;;;;;0.93;0.77;;;;;;;;;;5039966;28;20057;-84
2023/12/23 12:10:29;;;;;;;1.27;0.80;;;;;;;;;;5051821;28;20449;-84
2023/12/23 12:12:57;;;;;;;2.05;1.00;;;;;;;;;;5047326;28;20459;-86
2023/12/23 12:15:24;;;;;;;0.50;0.43;;;;;;;;;;5065911;28;20459;-85
2023/12/23 12:17:55;;;;;;;1.60;0.32;;;;;;;;;;5049843;28;20095;-87
2023/12/23 12:20:23;;;;;;;0.30;0.30;;;;;;;;;;5045962;28;20049;-84
2023/12/23 12:22:50;;;;;;;0.10;0.10;;;;;;;;;;5032963;28;20048;-86
2023/12/23 12:25:18;;;;;;;0.15;0.15;;;;;;;;;;5046241;28;20560;-85
2023/12/23 12:27:45;;;;;;;0.52;0.17;;;;;;;;;;5044124;28;20084;-86
2023/12/23 12:30:13;;;;;;;1.85;1.02;;;;;;;;;;5048690;28;20045;-85
2023/12/23 12:32:46;;;;;;;0.20;0.20;;;;;;;;;;5062874;28;20049;-86
2023/12/23 12:35:14;;;;;;;0.15;0.13;;;;;;;;;;5049093;28;20057;-87
2023/12/23 12:37:43;;;;;;;0.13;0.13;;;;;;;;;;5045572;28;20053;-85
2023/12/23 12:40:13;;;;;;;0.70;0.52;;;;;;;;;;5047216;28;20053;-87
2023/12/23 12:42:50;;;;;;;0.98;0.88;;;;;;;;;;5050646;28;20049;-86
2023/12/23 12:45:18;;;;;;;0.82;0.20;;;;;;;;;;5022900;28;20050;-86
2023/12/23 12:47:48;;;;;;;0.20;0.20;;;;;;;;;;5057114;28;20078;-85
2023/12/23 12:50:18;;;;;;;0.55;0.20;;;;;;;;;;5046057;28;20441;-86
2023/12/23 12:52:46;;;;;;;0.10;0.10;;;;;;;;;;5049826;28;20076;-86
2023/12/23 12:55:14;;;;;;;2.63;0.20;;;;;;;;;;5046253;28;20044;-87
2023/12/23 12:57:42;;;;;;;0.10;0.10;;;;;;;;;;5037318;28;20053;-86
2023/12/23 13:00:09;;;;;;;0.82;0.13;;;;;;;;;;5041384;28;20425;-86
2023/12/23 13:02:36;;;;;;;0.93;0.10;;;;;;;;;;5049258;28;20107;-85
2023/12/23 13:05:04;;;;;;;0.63;0.40;;;;;;;;;;5048974;28;20044;-83
2023/12/23 13:07:31;;;;;;;0.08;0.08;;;;;;;;;;5022287;28;20072;-87
2023/12/23 13:09:59;;;;;;;0.10;0.10;;;;;;;;;;5047129;28;20494;-84
2023/12/23 13:12:26;;;;;;;0.20;0.20;;;;;;;;;;5050281;28;20073;-87
2023/12/23 13:14:53;;;;;;;0.20;0.10;;;;;;;;;;5051640;28;20110;-83
2023/12/23 13:17:21;;;;;;;0.30;0.10;;;;;;;;;;5049902;28;20049;-87
2023/12/23 13:19:48;;;;;;;0.52;0.20;;;;;;;;;;5040793;28;20061;-86
2023/12/23 13:22:16;;;;;;;0.50;0.20;;;;;;;;;;5041159;28;20056;-86
2023/12/23 13:24:43;;;;;;;0.10;0.10;;;;;;;;;;5043748;28;20455;-86
2023/12/23 13:27:10;;;;;;;0.17;0.10;;;;;;;;;;5051141;28;20100;-85
2023/12/23 13:29:38;;;;;;;0.20;0.20;;;;;;;;;;5035470;28;20471;-84
2023/12/23 13:32:05;;;;;;;0.10;0.10;;;;;;;;;;5043246;28;20219;-84
2023/12/23 13:34:32;;;;;;;0.10;0.10;;;;;;;;;;5059220;28;20052;-87
2023/12/23 13:37:00;;;;;;;0.15;0.15;;;;;;;;;;5035992;28;20046;-86
2023/12/23 13:39:27;;;;;;;1.02;0.20;;;;;;;;;;5045975;28;20486;-85
2023/12/23 13:41:54;;;;;;;0.30;0.30;;;;;;;;;;5039144;28;20084;-86
2023/12/23 13:44:22;;;;;;;4.18;0.40;;;;;;;;;;5044784;28;20104;-86
2023/12/23 13:46:49;;;;;;;0.30;0.30;;;;;;;;;;5045700;28;20107;-86
2023/12/23 13:49:16;;;;;;;0.30;0.30;;;;;;;;;;5027233;28;20056;-85
2023/12/23 13:51:44;;;;;;;0.80;0.30;;;;;;;;;;5033966;28;20045;-84
2023/12/23 13:54:11;;;;;;;0.10;0.10;;;;;;;;;;5042118;28;20053;-86
2023/12/23 13:56:38;;;;;;;0.32;0.30;;;;;;;;;;5038848;28;20107;-86
2023/12/23 13:59:05;;;;;;;0.95;0.43;;;;;;;;;;5022870;28;20041;-86
2023/12/23 14:01:33;;;;;;;1.08;0.80;;;;;;;;;;5045823;28;20056;-86
2023/12/23 14:04:00;;;;;;;1.35;0.80;;;;;;;;;;5037172;28;20049;-87
2023/12/23 14:06:27;;;;;;;0.68;0.52;;;;;;;;;;5045377;28;20118;-86
2023/12/23 14:08:54;;;;;;;2.33;1.50;;;;;;;;;;5045733;28;20072;-86
2023/12/23 14:11:22;;;;;;;0.43;0.40;;;;;;;;;;5018788;28;20045;-86
2023/12/23 14:13:49;;;;;;;0.88;0.40;;;;;;;;;;5036438;28;20060;-87
2023/12/23 14:16:16;;;;;;;0.30;0.30;;;;;;;;;;5026791;28;20456;-86
2023/12/23 14:18:45;;;;;;;0.10;0.10;;;;;;;;;;5030851;28;20486;-82
2023/12/23 14:21:13;;;;;;;0.40;0.40;;;;;;;;;;5041787;28;20049;-86
2023/12/23 14:23:40;;;;;;;0.20;0.20;;;;;;;;;;5042646;28;20115;-86
2023/12/23 14:26:07;;;;;;;0.10;0.10;;;;;;;;;;5058098;28;20449;-85
2023/12/23 14:28:35;;;;;;;0.10;0.10;;;;;;;;;;5041813;28;20117;-86
2023/12/23 14:31:02;;;;;;;0.10;0.10;;;;;;;;;;5042288;28;20049;-87
2023/12/23 14:33:31;;;;;;;2.35;1.52;;;;;;;;;;5036454;28;20045;-87
2023/12/23 14:36:00;;;;;;;0.45;0.45;;;;;;;;;;5059628;28;20049;-86
2023/12/23 14:38:27;;;;;;;0.60;0.60;;;;;;;;;;5061644;28;20049;-87
2023/12/23 14:40:54;;;;;;;0.70;0.40;;;;;;;;;;5044755;28;20511;-86
2023/12/23 14:43:22;;;;;;;0.65;0.40;;;;;;;;;;5043004;28;20052;-86
2023/12/23 14:45:49;;;;;;;1.67;0.47;;;;;;;;;;5057932;28;20112;-86